sensor_id;sensor_type;location;lat;lon;timestamp;P1;durP1;ratioP1;P2;durP2;ratioP2
25443;SDS011;13368;52.346;4.678;2023-06-22T00:00:00;2.4;;;1.7;;
25443;SDS011;13368;52.346;4.678;2023-06-22T00:05:00;2.5;;;1.3;;
25443;SDS011;13368;52.346;4.678;2023-06-22T00:10:00;4.1;;;1.5;;
25443;SDS011;13368;52.346;4.678;2023-06-22T00:15:00;2.0;;;1.5;;
25443;SDS011;13368;52.346;4.678;2023-06-22T00:20:00;4.1;;;2.0;;
25443;SDS011;13368;52.346;4.678;2023-06-22T00:25:00;2.7;;;2.2;;
25443;SDS011;13368;52.346;4.678;2023-06-22T00:30:00;2.2;;;1.7;;
25443;SDS011;13368;52.346;4.678;2023-06-22T00:35:00;1.9;;;1.4;;
25443;SDS011;13368;52.346;4.678;2023-06-22T00:40:00;2.4;;;1.9;;
25443;SDS011;13368;52.346;4.678;2023-06-22T00:45:00;2.5;;;2.0;;
25443;SDS011;13368;52.346;4.678;2023-06-22T00:50:00;3.1;;;2.0;;
25443;SDS011;13368;52.346;4.678;2023-06-22T00:55:01;2.2;;;2.0;;
25443;SDS011;13368;52.346;4.678;2023-06-22T01:00:00;2.6;;;2.0;;
25443;SDS011;13368;52.346;4.678;2023-06-22T01:05:00;3.0;;;2.1;;
25443;SDS011;13368;52.346;4.678;2023-06-22T01:10:03;2.9;;;2.0;;
25443;SDS011;13368;52.346;4.678;2023-06-22T01:15:02;2.6;;;1.7;;
25443;SDS011;13368;52.346;4.678;2023-06-22T01:20:00;2.5;;;1.8;;
25443;SDS011;13368;52.346;4.678;2023-06-22T01:25:04;6.6;;;2.2;;
25443;SDS011;13368;52.346;4.678;2023-06-22T01:30:00;3.5;;;2.2;;
25443;SDS011;13368;52.346;4.678;2023-06-22T01:35:01;3.7;;;2.0;;
25443;SDS011;13368;52.346;4.678;2023-06-22T01:40:00;2.2;;;2.0;;
25443;SDS011;13368;52.346;4.678;2023-06-22T01:45:00;3.3;;;2.3;;
25443;SDS011;13368;52.346;4.678;2023-06-22T01:50:00;3.2;;;2.2;;
25443;SDS011;13368;52.346;4.678;2023-06-22T01:55:00;4.4;;;2.5;;
25443;SDS011;13368;52.346;4.678;2023-06-22T02:00:01;2.7;;;1.7;;
25443;SDS011;13368;52.346;4.678;2023-06-22T02:05:02;4.7;;;1.9;;
25443;SDS011;13368;52.346;4.678;2023-06-22T02:10:00;4.3;;;1.9;;
25443;SDS011;13368;52.346;4.678;2023-06-22T02:15:00;2.5;;;2.2;;
25443;SDS011;13368;52.346;4.678;2023-06-22T02:20:01;3.7;;;2.6;;
25443;SDS011;13368;52.346;4.678;2023-06-22T02:25:00;2.4;;;2.0;;
25443;SDS011;13368;52.346;4.678;2023-06-22T02:30:00;5.9;;;2.2;;
25443;SDS011;13368;52.346;4.678;2023-06-22T02:35:00;6.6;;;2.1;;
25443;SDS011;13368;52.346;4.678;2023-06-22T02:40:00;2.7;;;1.6;;
25443;SDS011;13368;52.346;4.678;2023-06-22T02:45:00;2.2;;;1.9;;
25443;SDS011;13368;52.346;4.678;2023-06-22T02:50:00;2.1;;;1.9;;
25443;SDS011;13368;52.346;4.678;2023-06-22T02:55:00;3.6;;;2.0;;
25443;SDS011;13368;52.346;4.678;2023-06-22T03:00:02;2.0;;;1.9;;
25443;SDS011;13368;52.346;4.678;2023-06-22T03:05:00;3.0;;;1.9;;
25443;SDS011;13368;52.346;4.678;2023-06-22T03:10:00;5.3;;;2.8;;
25443;SDS011;13368;52.346;4.678;2023-06-22T03:15:00;2.4;;;1.9;;
25443;SDS011;13368;52.346;4.678;2023-06-22T03:20:00;2.6;;;2.0;;
25443;SDS011;13368;52.346;4.678;2023-06-22T03:25:00;2.6;;;2.4;;
25443;SDS011;13368;52.346;4.678;2023-06-22T03:30:00;4.3;;;1.8;;
25443;SDS011;13368;52.346;4.678;2023-06-22T03:35:00;3.0;;;2.3;;
25443;SDS011;13368;52.346;4.678;2023-06-22T03:40:00;2.2;;;2.0;;
25443;SDS011;13368;52.346;4.678;2023-06-22T03:45:00;2.5;;;2.1;;
25443;SDS011;13368;52.346;4.678;2023-06-22T03:50:00;3.3;;;2.0;;
25443;SDS011;13368;52.346;4.678;2023-06-22T03:55:00;2.8;;;2.0;;
25443;SDS011;13368;52.346;4.678;2023-06-22T04:00:00;4.5;;;2.0;;
25443;SDS011;13368;52.346;4.678;2023-06-22T04:05:00;4.5;;;2.0;;
25443;SDS011;13368;52.346;4.678;2023-06-22T04:10:00;3.3;;;2.4;;
25443;SDS011;13368;52.346;4.678;2023-06-22T04:15:00;1.5;;;1.4;;
25443;SDS011;13368;52.346;4.678;2023-06-22T04:20:00;2.7;;;2.0;;
25443;SDS011;13368;52.346;4.678;2023-06-22T04:25:00;2.7;;;2.1;;
25443;SDS011;13368;52.346;4.678;2023-06-22T04:30:00;3.3;;;2.4;;
25443;SDS011;13368;52.346;4.678;2023-06-22T04:35:00;5.6;;;2.7;;
25443;SDS011;13368;52.346;4.678;2023-06-22T04:40:00;2.5;;;2.1;;
25443;SDS011;13368;52.346;4.678;2023-06-22T04:45:00;2.2;;;2.0;;
25443;SDS011;13368;52.346;4.678;2023-06-22T04:50:00;2.9;;;2.6;;
25443;SDS011;13368;52.346;4.678;2023-06-22T04:55:00;2.6;;;2.4;;
25443;SDS011;13368;52.346;4.678;2023-06-22T05:00:00;2.3;;;2.0;;
25443;SDS011;13368;52.346;4.678;2023-06-22T05:05:00;6.1;;;2.2;;
25443;SDS011;13368;52.346;4.678;2023-06-22T05:10:00;2.3;;;2.0;;
25443;SDS011;13368;52.346;4.678;2023-06-22T05:15:00;5.6;;;1.9;;
25443;SDS011;13368;52.346;4.678;2023-06-22T05:20:00;2.5;;;2.3;;
25443;SDS011;13368;52.346;4.678;2023-06-22T05:25:00;2.4;;;2.1;;
25443;SDS011;13368;52.346;4.678;2023-06-22T05:30:00;3.1;;;2.6;;
25443;SDS011;13368;52.346;4.678;2023-06-22T05:35:00;1.5;;;1.4;;
25443;SDS011;13368;52.346;4.678;2023-06-22T05:40:00;3.3;;;2.7;;
25443;SDS011;13368;52.346;4.678;2023-06-22T05:45:00;3.8;;;2.5;;
25443;SDS011;13368;52.346;4.678;2023-06-22T05:50:00;2.8;;;2.4;;
25443;SDS011;13368;52.346;4.678;2023-06-22T05:55:01;2.7;;;2.1;;
25443;SDS011;13368;52.346;4.678;2023-06-22T06:00:00;3.2;;;2.2;;
25443;SDS011;13368;52.346;4.678;2023-06-22T06:05:00;2.7;;;1.9;;
25443;SDS011;13368;52.346;4.678;2023-06-22T06:10:00;3.6;;;2.3;;
25443;SDS011;13368;52.346;4.678;2023-06-22T06:15:00;2.1;;;2.0;;
25443;SDS011;13368;52.346;4.678;2023-06-22T06:20:00;4.7;;;2.4;;
25443;SDS011;13368;52.346;4.678;2023-06-22T06:25:00;3.2;;;2.3;;
25443;SDS011;13368;52.346;4.678;2023-06-22T06:30:00;3.1;;;2.6;;
25443;SDS011;13368;52.346;4.678;2023-06-22T06:35:00;1.8;;;1.7;;
25443;SDS011;13368;52.346;4.678;2023-06-22T06:40:00;4.4;;;2.4;;
25443;SDS011;13368;52.346;4.678;2023-06-22T06:45:00;3.1;;;2.6;;
25443;SDS011;13368;52.346;4.678;2023-06-22T06:50:00;4.3;;;2.4;;
25443;SDS011;13368;52.346;4.678;2023-06-22T06:55:00;4.5;;;2.1;;
25443;SDS011;13368;52.346;4.678;2023-06-22T07:00:00;5.7;;;2.7;;
25443;SDS011;13368;52.346;4.678;2023-06-22T07:05:00;3.5;;;2.8;;
25443;SDS011;13368;52.346;4.678;2023-06-22T07:10:00;3.2;;;2.6;;
25443;SDS011;13368;52.346;4.678;2023-06-22T07:15:01;4.5;;;2.8;;
25443;SDS011;13368;52.346;4.678;2023-06-22T07:20:00;4.9;;;2.0;;
25443;SDS011;13368;52.346;4.678;2023-06-22T07:25:00;2.6;;;2.2;;
25443;SDS011;13368;52.346;4.678;2023-06-22T07:30:00;5.4;;;2.6;;
25443;SDS011;13368;52.346;4.678;2023-06-22T07:35:00;3.9;;;2.4;;
25443;SDS011;13368;52.346;4.678;2023-06-22T07:40:00;3.1;;;2.8;;
25443;SDS011;13368;52.346;4.678;2023-06-22T07:45:00;9.2;;;2.8;;
25443;SDS011;13368;52.346;4.678;2023-06-22T07:50:00;4.3;;;2.2;;
25443;SDS011;13368;52.346;4.678;2023-06-22T07:55:00;5.9;;;2.5;;
25443;SDS011;13368;52.346;4.678;2023-06-22T08:00:00;3.9;;;2.2;;
25443;SDS011;13368;52.346;4.678;2023-06-22T08:05:00;3.0;;;2.7;;
25443;SDS011;13368;52.346;4.678;2023-06-22T08:10:00;5.5;;;2.4;;
25443;SDS011;13368;52.346;4.678;2023-06-22T08:15:00;5.4;;;2.2;;
25443;SDS011;13368;52.346;4.678;2023-06-22T08:20:00;2.5;;;1.8;;
25443;SDS011;13368;52.346;4.678;2023-06-22T08:25:00;5.5;;;2.4;;
25443;SDS011;13368;52.346;4.678;2023-06-22T08:30:00;3.6;;;2.5;;
25443;SDS011;13368;52.346;4.678;2023-06-22T08:35:00;3.3;;;2.6;;
25443;SDS011;13368;52.346;4.678;2023-06-22T08:40:01;2.5;;;2.1;;
25443;SDS011;13368;52.346;4.678;2023-06-22T08:45:00;3.1;;;1.9;;
25443;SDS011;13368;52.346;4.678;2023-06-22T08:50:00;3.0;;;1.8;;
25443;SDS011;13368;52.346;4.678;2023-06-22T08:55:00;2.9;;;1.8;;
25443;SDS011;13368;52.346;4.678;2023-06-22T09:00:00;3.5;;;2.4;;
25443;SDS011;13368;52.346;4.678;2023-06-22T09:05:03;2.7;;;2.2;;
25443;SDS011;13368;52.346;4.678;2023-06-22T09:10:00;4.2;;;2.2;;
25443;SDS011;13368;52.346;4.678;2023-06-22T09:15:00;3.4;;;1.9;;
25443;SDS011;13368;52.346;4.678;2023-06-22T09:20:00;5.1;;;2.6;;
25443;SDS011;13368;52.346;4.678;2023-06-22T09:25:00;2.7;;;1.8;;
25443;SDS011;13368;52.346;4.678;2023-06-22T09:30:00;2.9;;;2.1;;
25443;SDS011;13368;52.346;4.678;2023-06-22T09:35:01;6.1;;;2.0;;
25443;SDS011;13368;52.346;4.678;2023-06-22T09:40:00;2.8;;;2.3;;
25443;SDS011;13368;52.346;4.678;2023-06-22T09:45:00;2.4;;;2.0;;
25443;SDS011;13368;52.346;4.678;2023-06-22T09:50:00;3.3;;;2.2;;
25443;SDS011;13368;52.346;4.678;2023-06-22T09:55:00;3.1;;;1.5;;
25443;SDS011;13368;52.346;4.678;2023-06-22T10:00:00;3.7;;;2.2;;
25443;SDS011;13368;52.346;4.678;2023-06-22T10:05:00;13.8;;;2.5;;
25443;SDS011;13368;52.346;4.678;2023-06-22T10:10:00;2.2;;;1.6;;
25443;SDS011;13368;52.346;4.678;2023-06-22T10:15:00;2.6;;;2.2;;
25443;SDS011;13368;52.346;4.678;2023-06-22T10:20:00;5.9;;;1.8;;
25443;SDS011;13368;52.346;4.678;2023-06-22T10:25:00;2.3;;;1.6;;
25443;SDS011;13368;52.346;4.678;2023-06-22T10:30:00;4.0;;;1.9;;
25443;SDS011;13368;52.346;4.678;2023-06-22T10:35:00;3.6;;;1.6;;
25443;SDS011;13368;52.346;4.678;2023-06-22T10:40:00;2.5;;;1.6;;
25443;SDS011;13368;52.346;4.678;2023-06-22T10:45:00;3.0;;;2.0;;
25443;SDS011;13368;52.346;4.678;2023-06-22T10:50:00;3.7;;;2.1;;
25443;SDS011;13368;52.346;4.678;2023-06-22T10:55:00;3.6;;;2.1;;
25443;SDS011;13368;52.346;4.678;2023-06-22T11:00:00;2.7;;;1.6;;
25443;SDS011;13368;52.346;4.678;2023-06-22T11:05:00;3.2;;;1.9;;
25443;SDS011;13368;52.346;4.678;2023-06-22T11:10:00;3.8;;;2.0;;
25443;SDS011;13368;52.346;4.678;2023-06-22T11:15:00;3.2;;;1.9;;
25443;SDS011;13368;52.346;4.678;2023-06-22T11:20:00;3.2;;;2.1;;
25443;SDS011;13368;52.346;4.678;2023-06-22T11:25:00;3.3;;;2.0;;
25443;SDS011;13368;52.346;4.678;2023-06-22T11:30:00;2.7;;;2.0;;
25443;SDS011;13368;52.346;4.678;2023-06-22T11:35:00;2.0;;;1.7;;
25443;SDS011;13368;52.346;4.678;2023-06-22T11:40:00;3.3;;;1.9;;
25443;SDS011;13368;52.346;4.678;2023-06-22T11:45:00;4.9;;;2.5;;
25443;SDS011;13368;52.346;4.678;2023-06-22T11:50:00;2.5;;;1.9;;
25443;SDS011;13368;52.346;4.678;2023-06-22T11:55:00;5.0;;;1.5;;
25443;SDS011;13368;52.346;4.678;2023-06-22T12:00:00;3.4;;;2.1;;
25443;SDS011;13368;52.346;4.678;2023-06-22T12:05:00;2.6;;;1.2;;
25443;SDS011;13368;52.346;4.678;2023-06-22T12:10:01;2.6;;;1.2;;
25443;SDS011;13368;52.346;4.678;2023-06-22T12:15:00;1.9;;;1.8;;
25443;SDS011;13368;52.346;4.678;2023-06-22T12:20:00;3.0;;;2.1;;
25443;SDS011;13368;52.346;4.678;2023-06-22T12:25:00;4.9;;;1.9;;
25443;SDS011;13368;52.346;4.678;2023-06-22T12:30:00;2.5;;;1.9;;
25443;SDS011;13368;52.346;4.678;2023-06-22T12:35:00;2.8;;;1.9;;
25443;SDS011;13368;52.346;4.678;2023-06-22T12:40:00;3.9;;;1.9;;
25443;SDS011;13368;52.346;4.678;2023-06-22T12:45:00;4.2;;;1.9;;
25443;SDS011;13368;52.346;4.678;2023-06-22T12:50:00;2.2;;;1.7;;
25443;SDS011;13368;52.346;4.678;2023-06-22T12:55:00;10.6;;;1.2;;
25443;SDS011;13368;52.346;4.678;2023-06-22T13:00:00;3.0;;;1.6;;
25443;SDS011;13368;52.346;4.678;2023-06-22T13:05:01;2.5;;;1.7;;
25443;SDS011;13368;52.346;4.678;2023-06-22T13:10:00;3.4;;;1.8;;
25443;SDS011;13368;52.346;4.678;2023-06-22T13:15:00;2.3;;;1.7;;
25443;SDS011;13368;52.346;4.678;2023-06-22T13:20:00;3.6;;;1.8;;
25443;SDS011;13368;52.346;4.678;2023-06-22T13:25:00;2.8;;;1.8;;
25443;SDS011;13368;52.346;4.678;2023-06-22T13:30:00;4.5;;;1.6;;
25443;SDS011;13368;52.346;4.678;2023-06-22T13:35:00;1.9;;;1.4;;
25443;SDS011;13368;52.346;4.678;2023-06-22T13:40:00;3.2;;;2.0;;
25443;SDS011;13368;52.346;4.678;2023-06-22T13:45:00;2.3;;;1.7;;
25443;SDS011;13368;52.346;4.678;2023-06-22T13:50:00;2.5;;;2.0;;
25443;SDS011;13368;52.346;4.678;2023-06-22T13:55:00;2.1;;;1.8;;
25443;SDS011;13368;52.346;4.678;2023-06-22T14:00:00;4.6;;;2.7;;
25443;SDS011;13368;52.346;4.678;2023-06-22T14:05:00;3.2;;;2.0;;
25443;SDS011;13368;52.346;4.678;2023-06-22T14:10:00;2.2;;;1.8;;
25443;SDS011;13368;52.346;4.678;2023-06-22T14:15:00;2.4;;;1.3;;
25443;SDS011;13368;52.346;4.678;2023-06-22T14:20:00;1.8;;;1.5;;
25443;SDS011;13368;52.346;4.678;2023-06-22T14:25:00;2.8;;;1.9;;
25443;SDS011;13368;52.346;4.678;2023-06-22T14:30:00;3.0;;;1.9;;
25443;SDS011;13368;52.346;4.678;2023-06-22T14:35:00;2.8;;;1.6;;
25443;SDS011;13368;52.346;4.678;2023-06-22T14:40:00;1.9;;;1.5;;
25443;SDS011;13368;52.346;4.678;2023-06-22T14:45:00;2.5;;;1.8;;
25443;SDS011;13368;52.346;4.678;2023-06-22T14:50:00;2.1;;;1.8;;
25443;SDS011;13368;52.346;4.678;2023-06-22T14:55:00;3.5;;;1.8;;
25443;SDS011;13368;52.346;4.678;2023-06-22T15:00:00;2.8;;;1.8;;
25443;SDS011;13368;52.346;4.678;2023-06-22T15:05:00;3.6;;;1.6;;
25443;SDS011;13368;52.346;4.678;2023-06-22T15:10:00;3.1;;;1.6;;
25443;SDS011;13368;52.346;4.678;2023-06-22T15:15:00;2.4;;;1.7;;
25443;SDS011;13368;52.346;4.678;2023-06-22T15:20:00;5.2;;;1.8;;
25443;SDS011;13368;52.346;4.678;2023-06-22T15:25:00;1.9;;;1.4;;
25443;SDS011;13368;52.346;4.678;2023-06-22T15:30:00;1.8;;;1.2;;
25443;SDS011;13368;52.346;4.678;2023-06-22T15:35:00;5.3;;;1.7;;
25443;SDS011;13368;52.346;4.678;2023-06-22T15:40:00;4.1;;;1.5;;
25443;SDS011;13368;52.346;4.678;2023-06-22T15:45:00;1.5;;;1.3;;
25443;SDS011;13368;52.346;4.678;2023-06-22T15:50:00;3.0;;;1.7;;
25443;SDS011;13368;52.346;4.678;2023-06-22T15:55:00;2.7;;;1.8;;
25443;SDS011;13368;52.346;4.678;2023-06-22T16:00:00;1.7;;;1.2;;
25443;SDS011;13368;52.346;4.678;2023-06-22T16:05:00;2.8;;;1.7;;
25443;SDS011;13368;52.346;4.678;2023-06-22T16:10:00;2.8;;;2.1;;
25443;SDS011;13368;52.346;4.678;2023-06-22T16:15:00;2.4;;;1.8;;
25443;SDS011;13368;52.346;4.678;2023-06-22T16:20:00;1.8;;;1.3;;
25443;SDS011;13368;52.346;4.678;2023-06-22T16:25:00;3.5;;;1.9;;
25443;SDS011;13368;52.346;4.678;2023-06-22T16:30:00;1.6;;;1.2;;
25443;SDS011;13368;52.346;4.678;2023-06-22T16:35:00;3.7;;;1.5;;
25443;SDS011;13368;52.346;4.678;2023-06-22T16:40:00;2.3;;;1.5;;
25443;SDS011;13368;52.346;4.678;2023-06-22T16:45:00;1.4;;;1.3;;
25443;SDS011;13368;52.346;4.678;2023-06-22T16:50:00;2.5;;;1.4;;
25443;SDS011;13368;52.346;4.678;2023-06-22T16:55:00;1.3;;;1.2;;
25443;SDS011;13368;52.346;4.678;2023-06-22T17:00:00;1.0;;;0.8;;
25443;SDS011;13368;52.346;4.678;2023-06-22T17:05:00;1.4;;;1.1;;
25443;SDS011;13368;52.346;4.678;2023-06-22T17:10:00;1.8;;;1.2;;
25443;SDS011;13368;52.346;4.678;2023-06-22T17:15:00;1.7;;;1.3;;
25443;SDS011;13368;52.346;4.678;2023-06-22T17:20:00;1.4;;;1.2;;
25443;SDS011;13368;52.346;4.678;2023-06-22T17:25:00;1.2;;;1.1;;
25443;SDS011;13368;52.346;4.678;2023-06-22T17:30:04;1.2;;;1.1;;
25443;SDS011;13368;52.346;4.678;2023-06-22T17:35:01;1.1;;;1.0;;
25443;SDS011;13368;52.346;4.678;2023-06-22T17:40:00;4.8;;;1.4;;
25443;SDS011;13368;52.346;4.678;2023-06-22T17:45:00;1.3;;;1.2;;
25443;SDS011;13368;52.346;4.678;2023-06-22T17:50:03;1.2;;;1.0;;
25443;SDS011;13368;52.346;4.678;2023-06-22T17:55:01;1.6;;;1.2;;
25443;SDS011;13368;52.346;4.678;2023-06-22T18:00:00;1.0;;;0.9;;
25443;SDS011;13368;52.346;4.678;2023-06-22T18:05:02;4.3;;;0.8;;
25443;SDS011;13368;52.346;4.678;2023-06-22T18:10:00;0.8;;;0.7;;
25443;SDS011;13368;52.346;4.678;2023-06-22T18:15:00;1.3;;;1.0;;
25443;SDS011;13368;52.346;4.678;2023-06-22T18:20:00;1.3;;;1.0;;
25443;SDS011;13368;52.346;4.678;2023-06-22T18:25:00;1.4;;;1.1;;
25443;SDS011;13368;52.346;4.678;2023-06-22T18:30:00;1.0;;;0.9;;
25443;SDS011;13368;52.346;4.678;2023-06-22T18:35:00;2.0;;;0.9;;
25443;SDS011;13368;52.346;4.678;2023-06-22T18:40:00;1.8;;;0.9;;
25443;SDS011;13368;52.346;4.678;2023-06-22T18:45:00;0.9;;;0.9;;
25443;SDS011;13368;52.346;4.678;2023-06-22T18:50:04;1.6;;;1.3;;
25443;SDS011;13368;52.346;4.678;2023-06-22T18:55:01;1.3;;;0.7;;
25443;SDS011;13368;52.346;4.678;2023-06-22T19:00:01;1.9;;;0.9;;
25443;SDS011;13368;52.346;4.678;2023-06-22T19:05:05;2.5;;;1.0;;
25443;SDS011;13368;52.346;4.678;2023-06-22T19:15:02;2.5;;;1.3;;
25443;SDS011;13368;52.346;4.678;2023-06-22T19:20:01;3.5;;;1.5;;
25443;SDS011;13368;52.346;4.678;2023-06-22T19:25:00;0.8;;;0.7;;
25443;SDS011;13368;52.346;4.678;2023-06-22T19:30:00;2.0;;;0.9;;
25443;SDS011;13368;52.346;4.678;2023-06-22T19:35:00;1.2;;;0.9;;
25443;SDS011;13368;52.346;4.678;2023-06-22T19:40:00;2.5;;;1.1;;
25443;SDS011;13368;52.346;4.678;2023-06-22T19:45:00;1.3;;;0.8;;
25443;SDS011;13368;52.346;4.678;2023-06-22T19:50:00;1.6;;;1.1;;
25443;SDS011;13368;52.346;4.678;2023-06-22T19:55:00;1.2;;;1.1;;
25443;SDS011;13368;52.346;4.678;2023-06-22T20:00:00;1.7;;;1.0;;
25443;SDS011;13368;52.346;4.678;2023-06-22T20:05:03;1.2;;;1.1;;
25443;SDS011;13368;52.346;4.678;2023-06-22T20:10:05;2.0;;;1.4;;
25443;SDS011;13368;52.346;4.678;2023-06-22T20:20:00;1.5;;;1.0;;
25443;SDS011;13368;52.346;4.678;2023-06-22T20:25:00;1.3;;;1.0;;
25443;SDS011;13368;52.346;4.678;2023-06-22T20:30:11;1.8;;;1.0;;
25443;SDS011;13368;52.346;4.678;2023-06-22T20:35:01;4.4;;;0.8;;
25443;SDS011;13368;52.346;4.678;2023-06-22T20:40:00;1.1;;;1.0;;
25443;SDS011;13368;52.346;4.678;2023-06-22T20:45:00;1.4;;;0.9;;
25443;SDS011;13368;52.346;4.678;2023-06-22T20:50:00;0.8;;;0.7;;
25443;SDS011;13368;52.346;4.678;2023-06-22T20:55:00;1.2;;;0.7;;
25443;SDS011;13368;52.346;4.678;2023-06-22T21:00:00;1.8;;;1.1;;
25443;SDS011;13368;52.346;4.678;2023-06-22T21:05:00;1.1;;;0.8;;
25443;SDS011;13368;52.346;4.678;2023-06-22T21:10:00;1.4;;;1.3;;
25443;SDS011;13368;52.346;4.678;2023-06-22T21:15:00;1.3;;;1.2;;
25443;SDS011;13368;52.346;4.678;2023-06-22T21:20:00;1.5;;;1.4;;
25443;SDS011;13368;52.346;4.678;2023-06-22T21:25:02;1.8;;;1.4;;
25443;SDS011;13368;52.346;4.678;2023-06-22T21:30:00;1.1;;;1.0;;
25443;SDS011;13368;52.346;4.678;2023-06-22T21:35:00;1.6;;;1.0;;
25443;SDS011;13368;52.346;4.678;2023-06-22T21:40:00;2.0;;;1.2;;
25443;SDS011;13368;52.346;4.678;2023-06-22T21:45:00;1.9;;;1.3;;
25443;SDS011;13368;52.346;4.678;2023-06-22T21:50:00;1.6;;;1.3;;
25443;SDS011;13368;52.346;4.678;2023-06-22T21:55:00;1.4;;;1.2;;
25443;SDS011;13368;52.346;4.678;2023-06-22T22:00:00;2.0;;;1.2;;
25443;SDS011;13368;52.346;4.678;2023-06-22T22:05:00;1.4;;;0.8;;
25443;SDS011;13368;52.346;4.678;2023-06-22T22:10:00;1.0;;;1.0;;
25443;SDS011;13368;52.346;4.678;2023-06-22T22:15:00;1.2;;;1.0;;
25443;SDS011;13368;52.346;4.678;2023-06-22T22:20:00;1.7;;;1.6;;
25443;SDS011;13368;52.346;4.678;2023-06-22T22:25:00;1.3;;;1.0;;
25443;SDS011;13368;52.346;4.678;2023-06-22T22:30:00;1.9;;;1.3;;
25443;SDS011;13368;52.346;4.678;2023-06-22T22:35:00;1.5;;;1.2;;
25443;SDS011;13368;52.346;4.678;2023-06-22T22:40:00;1.2;;;1.1;;
25443;SDS011;13368;52.346;4.678;2023-06-22T22:45:00;1.4;;;1.2;;
25443;SDS011;13368;52.346;4.678;2023-06-22T22:50:00;2.6;;;1.8;;
25443;SDS011;13368;52.346;4.678;2023-06-22T22:55:00;1.4;;;1.3;;
25443;SDS011;13368;52.346;4.678;2023-06-22T23:00:00;2.0;;;1.6;;
25443;SDS011;13368;52.346;4.678;2023-06-22T23:05:01;1.8;;;1.3;;
25443;SDS011;13368;52.346;4.678;2023-06-22T23:10:00;1.3;;;1.2;;
25443;SDS011;13368;52.346;4.678;2023-06-22T23:15:00;3.1;;;1.5;;
25443;SDS011;13368;52.346;4.678;2023-06-22T23:20:00;3.0;;;1.4;;
25443;SDS011;13368;52.346;4.678;2023-06-22T23:25:00;0.9;;;0.9;;
25443;SDS011;13368;52.346;4.678;2023-06-22T23:30:00;1.1;;;1.0;;
25443;SDS011;13368;52.346;4.678;2023-06-22T23:35:00;2.7;;;1.9;;
25443;SDS011;13368;52.346;4.678;2023-06-22T23:40:00;2.7;;;1.6;;
25443;SDS011;13368;52.346;4.678;2023-06-22T23:45:00;1.6;;;1.5;;
25443;SDS011;13368;52.346;4.678;2023-06-22T23:50:00;1.9;;;1.7;;
25443;SDS011;13368;52.346;4.678;2023-06-22T23:55:00;1.0;;;1.0;;
